Terminal Aerodrome Forecast
Issued by NWS

Home | Current Version | Previous Version | Text Only | Print | Product List | Glossary On
Versions: 1 2 3 4 5 6 7 8 9 10 11 12 13 14
000
FTUS46 KSGX 270520
TAFCRQ
TAF
KCRQ 270520Z 2706/2806 VRB05KT P6SM FEW015 SCT250
     FM271600 18005KT P6SM BKN015 BKN250
     FM272000 23010KT P6SM SCT015 SCT250
     FM280200 23010KT P6SM BKN020 BKN250=

USA.gov is the U.S. government's official web portal to all federal, state and local government web resources and services.